createdAt,value
2023-05-26T17:51:20.546Z,96621.50
2023-05-26T17:56:29.545Z,96629.28
2023-05-26T18:01:37.647Z,96620.59
2023-05-26T18:06:48.036Z,96631.88
2023-05-26T18:11:55.668Z,96626.22
2023-05-26T18:17:03.364Z,96640.94
2023-05-26T18:22:14.134Z,96645.59
2023-05-26T18:27:21.849Z,96639.16
2023-05-26T18:32:29.885Z,96646.47
2023-05-26T18:37:41.858Z,96641.19
2023-05-26T18:42:49.911Z,96647.78
2023-05-26T18:47:57.699Z,96648.22
2023-05-26T18:53:08.205Z,96648.66
2023-05-26T18:58:15.892Z,96655.91
2023-05-26T19:03:23.828Z,96650.97
2023-05-26T19:08:34.305Z,96648.34
2023-05-26T19:13:41.946Z,96646.81
2023-05-26T19:18:50.570Z,96648.00
2023-05-26T19:24:02.398Z,96660.63
2023-05-26T19:29:11.820Z,96665.22
2023-05-26T19:34:19.564Z,96662.50
2023-05-26T19:39:31.004Z,96663.66
2023-05-26T19:44:39.011Z,96667.09
2023-05-26T19:49:47.400Z,96675.09
2023-05-26T19:54:57.709Z,96681.94
2023-05-26T20:00:07.394Z,96683.47
2023-05-26T20:05:15.111Z,96679.59
2023-05-26T20:10:25.556Z,96680.69
2023-05-26T20:15:34.098Z,96687.91
2023-05-26T20:20:41.819Z,96691.66
2023-05-26T20:25:52.298Z,96696.22
2023-05-26T20:31:02.042Z,96690.06
2023-05-26T20:36:10.074Z,96691.94
2023-05-26T20:41:20.792Z,96689.25
2023-05-26T20:46:28.568Z,96688.84
2023-05-26T20:51:36.280Z,96689.19
2023-05-26T20:56:46.694Z,96694.09
2023-05-26T21:01:54.738Z,96697.91
2023-05-26T21:07:02.434Z,96702.06
2023-05-26T21:12:12.812Z,96705.47
2023-05-26T21:17:21.356Z,96695.91
2023-05-26T21:22:29.027Z,96694.34
2023-05-26T21:27:39.319Z,96703.50
2023-05-26T21:32:47.115Z,96699.22
2023-05-26T21:37:54.857Z,96694.25
2023-05-26T21:43:05.074Z,96698.81
2023-05-26T21:48:13.138Z,96701.06
2023-05-26T21:53:20.859Z,96705.59
2023-05-26T21:58:31.232Z,96698.34
2023-05-26T22:03:39.664Z,96700.94
2023-05-26T22:08:47.431Z,96699.34
2023-05-26T22:13:57.687Z,96696.66
2023-05-26T22:19:05.566Z,96696.97
2023-05-26T22:24:13.295Z,96704.91
2023-05-26T22:29:23.765Z,96703.31
2023-05-26T22:34:31.393Z,96707.41
2023-05-26T22:39:39.338Z,96708.09
2023-05-26T22:44:49.612Z,96702.72
2023-05-26T22:49:57.298Z,96715.59
2023-05-26T22:55:05.008Z,96710.94
2023-05-26T23:00:17.397Z,96710.94
2023-05-26T23:05:25.075Z,96709.69
2023-05-26T23:10:32.738Z,96706.94
2023-05-26T23:15:43.018Z,96713.28
2023-05-26T23:20:50.829Z,96707.03
2023-05-26T23:25:58.559Z,96711.09
2023-05-26T23:31:08.840Z,96710.22
2023-05-26T23:36:16.559Z,96706.28
2023-05-26T23:41:24.254Z,96703.13
2023-05-26T23:46:34.590Z,96700.78
2023-05-26T23:51:42.286Z,96704.47
2023-05-26T23:56:49.913Z,96688.34
